sensor_id;sensor_type;location;lat;lon;timestamp;P1;durP1;ratioP1;P2;durP2;ratioP2
50379;SDS011;37474;59.468;18.040;2023-09-18T00:02:13;1.50;;;1.10;;
50379;SDS011;37474;59.468;18.040;2023-09-18T00:04:43;3.27;;;1.20;;
50379;SDS011;37474;59.468;18.040;2023-09-18T00:07:11;1.63;;;1.00;;
50379;SDS011;37474;59.468;18.040;2023-09-18T00:09:38;1.70;;;1.17;;
50379;SDS011;37474;59.468;18.040;2023-09-18T00:12:06;3.67;;;1.30;;
50379;SDS011;37474;59.468;18.040;2023-09-18T00:14:36;2.13;;;1.13;;
50379;SDS011;37474;59.468;18.040;2023-09-18T00:17:04;2.17;;;1.17;;
50379;SDS011;37474;59.468;18.040;2023-09-18T00:19:33;2.83;;;1.03;;
50379;SDS011;37474;59.468;18.040;2023-09-18T00:22:02;2.30;;;1.17;;
50379;SDS011;37474;59.468;18.040;2023-09-18T00:24:31;1.30;;;0.90;;
50379;SDS011;37474;59.468;18.040;2023-09-18T00:27:02;3.20;;;1.20;;
50379;SDS011;37474;59.468;18.040;2023-09-18T00:29:30;3.83;;;1.40;;
50379;SDS011;37474;59.468;18.040;2023-09-18T00:34:28;2.60;;;1.10;;
50379;SDS011;37474;59.468;18.040;2023-09-18T00:36:58;1.17;;;1.08;;
50379;SDS011;37474;59.468;18.040;2023-09-18T00:39:27;1.00;;;0.80;;
50379;SDS011;37474;59.468;18.040;2023-09-18T00:41:55;1.60;;;1.00;;
50379;SDS011;37474;59.468;18.040;2023-09-18T00:44:26;1.60;;;1.00;;
50379;SDS011;37474;59.468;18.040;2023-09-18T00:46:54;1.57;;;1.00;;
50379;SDS011;37474;59.468;18.040;2023-09-18T00:49:23;4.83;;;1.20;;
50379;SDS011;37474;59.468;18.040;2023-09-18T00:51:51;2.00;;;1.10;;
50379;SDS011;37474;59.468;18.040;2023-09-18T00:54:19;1.50;;;0.93;;
50379;SDS011;37474;59.468;18.040;2023-09-18T00:56:49;5.33;;;1.40;;
50379;SDS011;37474;59.468;18.040;2023-09-18T00:59:20;1.63;;;1.17;;
50379;SDS011;37474;59.468;18.040;2023-09-18T01:01:48;1.80;;;1.20;;
50379;SDS011;37474;59.468;18.040;2023-09-18T01:04:17;1.93;;;0.90;;
50379;SDS011;37474;59.468;18.040;2023-09-18T01:06:45;1.40;;;0.93;;
50379;SDS011;37474;59.468;18.040;2023-09-18T01:09:16;3.58;;;1.10;;
50379;SDS011;37474;59.468;18.040;2023-09-18T01:11:49;1.63;;;1.00;;
50379;SDS011;37474;59.468;18.040;2023-09-18T01:14:23;1.30;;;1.00;;
50379;SDS011;37474;59.468;18.040;2023-09-18T01:16:56;2.17;;;1.10;;
50379;SDS011;37474;59.468;18.040;2023-09-18T01:19:34;3.03;;;1.10;;
50379;SDS011;37474;59.468;18.040;2023-09-18T01:22:05;2.57;;;1.03;;
50379;SDS011;37474;59.468;18.040;2023-09-18T01:24:36;3.53;;;1.20;;
50379;SDS011;37474;59.468;18.040;2023-09-18T01:27:09;2.03;;;1.00;;
50379;SDS011;37474;59.468;18.040;2023-09-18T01:29:39;5.47;;;1.30;;
50379;SDS011;37474;59.468;18.040;2023-09-18T01:32:07;3.53;;;1.00;;
50379;SDS011;37474;59.468;18.040;2023-09-18T01:34:36;4.60;;;0.90;;
50379;SDS011;37474;59.468;18.040;2023-09-18T01:37:08;2.80;;;0.90;;
50379;SDS011;37474;59.468;18.040;2023-09-18T01:39:40;3.20;;;1.10;;
50379;SDS011;37474;59.468;18.040;2023-09-18T01:42:09;1.60;;;0.85;;
50379;SDS011;37474;59.468;18.040;2023-09-18T01:44:39;1.15;;;0.80;;
50379;SDS011;37474;59.468;18.040;2023-09-18T01:47:10;1.60;;;1.10;;
50379;SDS011;37474;59.468;18.040;2023-09-18T01:49:41;2.20;;;0.80;;
50379;SDS011;37474;59.468;18.040;2023-09-18T01:52:09;1.63;;;1.07;;
50379;SDS011;37474;59.468;18.040;2023-09-18T01:54:37;2.00;;;1.07;;
50379;SDS011;37474;59.468;18.040;2023-09-18T01:57:07;2.13;;;1.20;;
50379;SDS011;37474;59.468;18.040;2023-09-18T01:59:35;2.83;;;0.98;;
50379;SDS011;37474;59.468;18.040;2023-09-18T02:02:04;2.30;;;1.00;;
50379;SDS011;37474;59.468;18.040;2023-09-18T02:04:37;1.97;;;0.87;;
50379;SDS011;37474;59.468;18.040;2023-09-18T02:07:26;1.40;;;0.87;;
50379;SDS011;37474;59.468;18.040;2023-09-18T02:09:54;2.03;;;0.90;;
50379;SDS011;37474;59.468;18.040;2023-09-18T02:12:23;2.83;;;0.90;;
50379;SDS011;37474;59.468;18.040;2023-09-18T02:14:51;2.00;;;0.73;;
50379;SDS011;37474;59.468;18.040;2023-09-18T02:17:21;2.10;;;0.80;;
50379;SDS011;37474;59.468;18.040;2023-09-18T02:19:50;1.13;;;0.80;;
50379;SDS011;37474;59.468;18.040;2023-09-18T02:22:18;3.83;;;1.10;;
50379;SDS011;37474;59.468;18.040;2023-09-18T02:24:46;2.13;;;0.90;;
50379;SDS011;37474;59.468;18.040;2023-09-18T02:27:14;1.27;;;0.90;;
50379;SDS011;37474;59.468;18.040;2023-09-18T02:29:46;2.30;;;1.03;;
50379;SDS011;37474;59.468;18.040;2023-09-18T02:32:21;1.10;;;0.90;;
50379;SDS011;37474;59.468;18.040;2023-09-18T02:34:49;2.43;;;0.90;;
50379;SDS011;37474;59.468;18.040;2023-09-18T02:37:17;1.37;;;0.87;;
50379;SDS011;37474;59.468;18.040;2023-09-18T02:39:45;2.20;;;1.07;;
50379;SDS011;37474;59.468;18.040;2023-09-18T02:42:13;1.33;;;1.00;;
50379;SDS011;37474;59.468;18.040;2023-09-18T02:44:41;1.23;;;0.90;;
50379;SDS011;37474;59.468;18.040;2023-09-18T02:47:11;2.00;;;1.20;;
50379;SDS011;37474;59.468;18.040;2023-09-18T02:49:39;2.70;;;1.10;;
50379;SDS011;37474;59.468;18.040;2023-09-18T02:52:07;2.10;;;0.90;;
50379;SDS011;37474;59.468;18.040;2023-09-18T02:54:35;2.53;;;0.90;;
50379;SDS011;37474;59.468;18.040;2023-09-18T02:57:03;1.97;;;0.80;;
50379;SDS011;37474;59.468;18.040;2023-09-18T02:59:31;1.93;;;1.03;;
50379;SDS011;37474;59.468;18.040;2023-09-18T03:02:00;1.30;;;0.80;;
50379;SDS011;37474;59.468;18.040;2023-09-18T03:04:30;1.93;;;0.90;;
50379;SDS011;37474;59.468;18.040;2023-09-18T03:09:26;2.40;;;1.00;;
50379;SDS011;37474;59.468;18.040;2023-09-18T03:11:54;3.00;;;1.07;;
50379;SDS011;37474;59.468;18.040;2023-09-18T03:14:22;1.97;;;0.90;;
50379;SDS011;37474;59.468;18.040;2023-09-18T03:16:50;1.70;;;1.00;;
50379;SDS011;37474;59.468;18.040;2023-09-18T03:19:18;2.50;;;1.10;;
50379;SDS011;37474;59.468;18.040;2023-09-18T03:21:49;0.82;;;0.80;;
50379;SDS011;37474;59.468;18.040;2023-09-18T03:24:18;4.22;;;1.77;;
50379;SDS011;37474;59.468;18.040;2023-09-18T03:26:46;2.47;;;1.10;;
50379;SDS011;37474;59.468;18.040;2023-09-18T03:29:15;1.52;;;0.90;;
50379;SDS011;37474;59.468;18.040;2023-09-18T03:31:43;1.20;;;0.80;;
50379;SDS011;37474;59.468;18.040;2023-09-18T03:34:11;1.73;;;0.90;;
50379;SDS011;37474;59.468;18.040;2023-09-18T03:36:39;1.63;;;1.00;;
50379;SDS011;37474;59.468;18.040;2023-09-18T03:39:09;5.03;;;1.00;;
50379;SDS011;37474;59.468;18.040;2023-09-18T03:41:37;1.00;;;0.80;;
50379;SDS011;37474;59.468;18.040;2023-09-18T03:44:05;2.50;;;0.80;;
50379;SDS011;37474;59.468;18.040;2023-09-18T03:46:33;2.23;;;0.80;;
50379;SDS011;37474;59.468;18.040;2023-09-18T03:49:00;1.07;;;0.90;;
50379;SDS011;37474;59.468;18.040;2023-09-18T03:51:29;1.50;;;0.93;;
50379;SDS011;37474;59.468;18.040;2023-09-18T03:53:57;1.10;;;0.77;;
50379;SDS011;37474;59.468;18.040;2023-09-18T03:56:26;2.93;;;1.10;;
50379;SDS011;37474;59.468;18.040;2023-09-18T03:58:54;5.17;;;1.00;;
50379;SDS011;37474;59.468;18.040;2023-09-18T04:01:24;1.23;;;0.85;;
50379;SDS011;37474;59.468;18.040;2023-09-18T04:03:52;1.40;;;0.90;;
50379;SDS011;37474;59.468;18.040;2023-09-18T04:06:21;1.20;;;0.90;;
50379;SDS011;37474;59.468;18.040;2023-09-18T04:08:50;3.37;;;0.93;;
50379;SDS011;37474;59.468;18.040;2023-09-18T04:11:18;1.47;;;0.90;;
50379;SDS011;37474;59.468;18.040;2023-09-18T04:13:53;1.70;;;0.80;;
50379;SDS011;37474;59.468;18.040;2023-09-18T04:16:21;1.47;;;0.83;;
50379;SDS011;37474;59.468;18.040;2023-09-18T04:18:48;2.63;;;1.00;;
50379;SDS011;37474;59.468;18.040;2023-09-18T04:21:17;1.53;;;1.00;;
50379;SDS011;37474;59.468;18.040;2023-09-18T04:23:45;2.53;;;1.00;;
50379;SDS011;37474;59.468;18.040;2023-09-18T04:26:13;1.67;;;0.90;;
50379;SDS011;37474;59.468;18.040;2023-09-18T04:28:42;1.08;;;0.73;;
50379;SDS011;37474;59.468;18.040;2023-09-18T04:31:11;3.83;;;0.97;;
50379;SDS011;37474;59.468;18.040;2023-09-18T04:33:39;3.37;;;1.00;;
50379;SDS011;37474;59.468;18.040;2023-09-18T04:36:07;2.40;;;0.77;;
50379;SDS011;37474;59.468;18.040;2023-09-18T04:38:35;3.93;;;1.10;;
50379;SDS011;37474;59.468;18.040;2023-09-18T04:41:05;1.83;;;0.95;;
50379;SDS011;37474;59.468;18.040;2023-09-18T04:43:33;1.00;;;0.90;;
50379;SDS011;37474;59.468;18.040;2023-09-18T04:46:02;1.30;;;0.83;;
50379;SDS011;37474;59.468;18.040;2023-09-18T04:48:34;2.27;;;1.00;;
50379;SDS011;37474;59.468;18.040;2023-09-18T04:51:05;1.80;;;0.90;;
50379;SDS011;37474;59.468;18.040;2023-09-18T04:53:33;3.07;;;0.97;;
50379;SDS011;37474;59.468;18.040;2023-09-18T04:56:01;4.53;;;1.27;;
50379;SDS011;37474;59.468;18.040;2023-09-18T04:58:30;1.93;;;0.90;;
50379;SDS011;37474;59.468;18.040;2023-09-18T05:00:58;1.77;;;0.90;;
50379;SDS011;37474;59.468;18.040;2023-09-18T05:03:27;2.40;;;1.03;;
50379;SDS011;37474;59.468;18.040;2023-09-18T05:05:57;2.80;;;1.10;;
50379;SDS011;37474;59.468;18.040;2023-09-18T05:08:25;1.30;;;1.00;;
50379;SDS011;37474;59.468;18.040;2023-09-18T05:10:53;1.43;;;1.10;;
50379;SDS011;37474;59.468;18.040;2023-09-18T05:13:21;1.13;;;1.00;;
50379;SDS011;37474;59.468;18.040;2023-09-18T05:15:49;2.87;;;1.10;;
50379;SDS011;37474;59.468;18.040;2023-09-18T05:18:17;2.27;;;1.00;;
50379;SDS011;37474;59.468;18.040;2023-09-18T05:20:48;1.50;;;1.07;;
50379;SDS011;37474;59.468;18.040;2023-09-18T05:23:17;2.97;;;1.30;;
50379;SDS011;37474;59.468;18.040;2023-09-18T05:25:45;2.33;;;1.35;;
50379;SDS011;37474;59.468;18.040;2023-09-18T05:28:13;2.03;;;1.20;;
50379;SDS011;37474;59.468;18.040;2023-09-18T05:30:41;2.67;;;1.40;;
50379;SDS011;37474;59.468;18.040;2023-09-18T05:33:09;2.37;;;1.27;;
50379;SDS011;37474;59.468;18.040;2023-09-18T05:35:39;2.43;;;1.47;;
50379;SDS011;37474;59.468;18.040;2023-09-18T05:38:09;4.27;;;1.13;;
50379;SDS011;37474;59.468;18.040;2023-09-18T05:40:41;2.10;;;1.40;;
50379;SDS011;37474;59.468;18.040;2023-09-18T05:43:10;2.25;;;1.50;;
50379;SDS011;37474;59.468;18.040;2023-09-18T05:45:38;2.50;;;1.43;;
50379;SDS011;37474;59.468;18.040;2023-09-18T05:48:06;2.07;;;1.60;;
50379;SDS011;37474;59.468;18.040;2023-09-18T05:50:35;3.80;;;1.70;;
50379;SDS011;37474;59.468;18.040;2023-09-18T05:53:03;2.03;;;1.67;;
50379;SDS011;37474;59.468;18.040;2023-09-18T05:55:32;2.33;;;1.80;;
50379;SDS011;37474;59.468;18.040;2023-09-18T05:58:02;1.60;;;1.43;;
50379;SDS011;37474;59.468;18.040;2023-09-18T06:00:33;2.63;;;1.40;;
50379;SDS011;37474;59.468;18.040;2023-09-18T06:03:01;3.77;;;1.67;;
50379;SDS011;37474;59.468;18.040;2023-09-18T06:05:29;5.33;;;2.33;;
50379;SDS011;37474;59.468;18.040;2023-09-18T06:07:58;3.60;;;1.77;;
50379;SDS011;37474;59.468;18.040;2023-09-18T06:10:26;2.47;;;1.70;;
50379;SDS011;37474;59.468;18.040;2023-09-18T06:12:54;4.03;;;1.77;;
50379;SDS011;37474;59.468;18.040;2023-09-18T06:15:24;2.40;;;1.43;;
50379;SDS011;37474;59.468;18.040;2023-09-18T06:17:51;5.10;;;1.83;;
50379;SDS011;37474;59.468;18.040;2023-09-18T06:20:20;5.03;;;1.50;;
50379;SDS011;37474;59.468;18.040;2023-09-18T06:22:48;6.53;;;1.77;;
50379;SDS011;37474;59.468;18.040;2023-09-18T06:25:16;4.97;;;1.60;;
50379;SDS011;37474;59.468;18.040;2023-09-18T06:27:44;2.57;;;1.60;;
50379;SDS011;37474;59.468;18.040;2023-09-18T06:30:12;2.23;;;1.50;;
50379;SDS011;37474;59.468;18.040;2023-09-18T06:32:42;4.03;;;1.67;;
50379;SDS011;37474;59.468;18.040;2023-09-18T06:35:11;2.03;;;1.50;;
50379;SDS011;37474;59.468;18.040;2023-09-18T06:37:39;2.97;;;1.10;;
50379;SDS011;37474;59.468;18.040;2023-09-18T06:40:08;3.63;;;1.17;;
50379;SDS011;37474;59.468;18.040;2023-09-18T06:42:36;5.33;;;1.17;;
50379;SDS011;37474;59.468;18.040;2023-09-18T06:45:06;1.37;;;0.90;;
50379;SDS011;37474;59.468;18.040;2023-09-18T06:47:34;2.53;;;1.10;;
50379;SDS011;37474;59.468;18.040;2023-09-18T06:50:07;2.93;;;0.90;;
50379;SDS011;37474;59.468;18.040;2023-09-18T06:52:35;3.93;;;1.10;;
50379;SDS011;37474;59.468;18.040;2023-09-18T06:55:03;5.80;;;1.17;;
50379;SDS011;37474;59.468;18.040;2023-09-18T06:57:32;1.87;;;0.70;;
50379;SDS011;37474;59.468;18.040;2023-09-18T07:00:00;1.47;;;0.87;;
50379;SDS011;37474;59.468;18.040;2023-09-18T07:02:29;2.50;;;1.20;;
50379;SDS011;37474;59.468;18.040;2023-09-18T07:04:57;3.97;;;2.13;;
50379;SDS011;37474;59.468;18.040;2023-09-18T07:07:28;4.63;;;1.60;;
50379;SDS011;37474;59.468;18.040;2023-09-18T07:09:56;3.70;;;3.20;;
50379;SDS011;37474;59.468;18.040;2023-09-18T07:12:27;5.10;;;4.60;;
50379;SDS011;37474;59.468;18.040;2023-09-18T07:14:55;4.97;;;1.63;;
50379;SDS011;37474;59.468;18.040;2023-09-18T07:17:23;3.50;;;0.93;;
50379;SDS011;37474;59.468;18.040;2023-09-18T07:19:51;3.23;;;1.10;;
50379;SDS011;37474;59.468;18.040;2023-09-18T07:22:19;1.33;;;0.80;;
50379;SDS011;37474;59.468;18.040;2023-09-18T07:24:48;3.53;;;0.90;;
50379;SDS011;37474;59.468;18.040;2023-09-18T07:27:16;2.50;;;0.90;;
50379;SDS011;37474;59.468;18.040;2023-09-18T07:29:51;3.27;;;0.53;;
50379;SDS011;37474;59.468;18.040;2023-09-18T07:32:22;1.80;;;0.60;;
50379;SDS011;37474;59.468;18.040;2023-09-18T07:35:03;0.83;;;0.53;;
50379;SDS011;37474;59.468;18.040;2023-09-18T07:37:33;3.03;;;0.70;;
50379;SDS011;37474;59.468;18.040;2023-09-18T07:40:04;1.10;;;0.50;;
50379;SDS011;37474;59.468;18.040;2023-09-18T07:42:32;2.17;;;0.70;;
50379;SDS011;37474;59.468;18.040;2023-09-18T07:45:00;2.03;;;0.87;;
50379;SDS011;37474;59.468;18.040;2023-09-18T07:47:28;1.97;;;0.60;;
50379;SDS011;37474;59.468;18.040;2023-09-18T07:49:57;1.53;;;0.50;;
50379;SDS011;37474;59.468;18.040;2023-09-18T07:52:25;0.93;;;0.70;;
50379;SDS011;37474;59.468;18.040;2023-09-18T07:54:53;1.40;;;0.60;;
50379;SDS011;37474;59.468;18.040;2023-09-18T07:57:22;2.97;;;1.03;;
50379;SDS011;37474;59.468;18.040;2023-09-18T07:59:51;2.25;;;0.52;;
50379;SDS011;37474;59.468;18.040;2023-09-18T08:02:19;0.57;;;0.40;;
50379;SDS011;37474;59.468;18.040;2023-09-18T08:04:48;2.07;;;0.63;;
50379;SDS011;37474;59.468;18.040;2023-09-18T08:07:18;2.13;;;0.70;;
50379;SDS011;37474;59.468;18.040;2023-09-18T08:09:46;1.13;;;0.47;;
50379;SDS011;37474;59.468;18.040;2023-09-18T08:12:15;3.13;;;0.53;;
50379;SDS011;37474;59.468;18.040;2023-09-18T08:14:44;3.57;;;0.73;;
50379;SDS011;37474;59.468;18.040;2023-09-18T08:17:13;2.13;;;0.65;;
50379;SDS011;37474;59.468;18.040;2023-09-18T08:19:41;1.90;;;0.40;;
50379;SDS011;37474;59.468;18.040;2023-09-18T08:22:10;1.75;;;0.57;;
50379;SDS011;37474;59.468;18.040;2023-09-18T08:24:43;1.85;;;0.50;;
50379;SDS011;37474;59.468;18.040;2023-09-18T08:27:13;3.22;;;0.60;;
50379;SDS011;37474;59.468;18.040;2023-09-18T08:29:44;20.67;;;1.50;;
50379;SDS011;37474;59.468;18.040;2023-09-18T08:32:12;2.28;;;0.70;;
50379;SDS011;37474;59.468;18.040;2023-09-18T08:34:40;1.37;;;0.53;;
50379;SDS011;37474;59.468;18.040;2023-09-18T08:37:08;2.47;;;0.60;;
50379;SDS011;37474;59.468;18.040;2023-09-18T08:39:36;1.60;;;0.70;;
50379;SDS011;37474;59.468;18.040;2023-09-18T08:42:05;1.02;;;0.63;;
50379;SDS011;37474;59.468;18.040;2023-09-18T08:44:35;3.22;;;0.68;;
50379;SDS011;37474;59.468;18.040;2023-09-18T08:47:07;1.92;;;0.70;;
50379;SDS011;37474;59.468;18.040;2023-09-18T08:49:36;1.80;;;0.68;;
50379;SDS011;37474;59.468;18.040;2023-09-18T08:52:05;3.15;;;0.73;;
50379;SDS011;37474;59.468;18.040;2023-09-18T08:54:37;3.15;;;0.57;;
50379;SDS011;37474;59.468;18.040;2023-09-18T08:57:07;1.75;;;0.50;;
50379;SDS011;37474;59.468;18.040;2023-09-18T08:59:36;3.28;;;0.50;;
50379;SDS011;37474;59.468;18.040;2023-09-18T09:02:08;6.88;;;0.57;;
50379;SDS011;37474;59.468;18.040;2023-09-18T09:04:38;1.00;;;0.32;;
50379;SDS011;37474;59.468;18.040;2023-09-18T09:07:06;1.98;;;0.60;;
50379;SDS011;37474;59.468;18.040;2023-09-18T09:09:35;1.20;;;0.70;;
50379;SDS011;37474;59.468;18.040;2023-09-18T09:12:04;1.23;;;0.50;;
50379;SDS011;37474;59.468;18.040;2023-09-18T09:14:32;5.55;;;0.75;;
50379;SDS011;37474;59.468;18.040;2023-09-18T09:17:00;2.13;;;0.50;;
50379;SDS011;37474;59.468;18.040;2023-09-18T09:19:31;3.28;;;0.55;;
50379;SDS011;37474;59.468;18.040;2023-09-18T09:22:01;0.80;;;0.50;;
50379;SDS011;37474;59.468;18.040;2023-09-18T09:24:35;1.13;;;0.47;;
50379;SDS011;37474;59.468;18.040;2023-09-18T09:27:04;5.55;;;0.60;;
50379;SDS011;37474;59.468;18.040;2023-09-18T09:29:32;4.20;;;0.45;;
50379;SDS011;37474;59.468;18.040;2023-09-18T09:34:46;5.50;;;0.77;;
50379;SDS011;37474;59.468;18.040;2023-09-18T09:37:14;1.60;;;0.50;;
50379;SDS011;37474;59.468;18.040;2023-09-18T09:39:46;0.60;;;0.40;;
50379;SDS011;37474;59.468;18.040;2023-09-18T09:42:16;1.63;;;0.40;;
50379;SDS011;37474;59.468;18.040;2023-09-18T09:45:01;4.25;;;0.85;;
50379;SDS011;37474;59.468;18.040;2023-09-18T09:47:32;2.05;;;0.60;;
50379;SDS011;37474;59.468;18.040;2023-09-18T09:50:10;4.35;;;1.00;;
50379;SDS011;37474;59.468;18.040;2023-09-18T09:52:43;2.22;;;0.68;;
50379;SDS011;37474;59.468;18.040;2023-09-18T09:55:18;3.00;;;0.50;;
50379;SDS011;37474;59.468;18.040;2023-09-18T09:57:47;2.90;;;0.50;;
50379;SDS011;37474;59.468;18.040;2023-09-18T10:00:16;1.10;;;0.50;;
50379;SDS011;37474;59.468;18.040;2023-09-18T10:02:56;3.27;;;0.60;;
50379;SDS011;37474;59.468;18.040;2023-09-18T11:26:44;3.15;;;0.82;;
50379;SDS011;37474;59.468;18.040;2023-09-18T11:29:14;2.28;;;0.80;;
50379;SDS011;37474;59.468;18.040;2023-09-18T11:31:46;1.77;;;0.60;;
50379;SDS011;37474;59.468;18.040;2023-09-18T11:34:19;2.83;;;0.65;;
50379;SDS011;37474;59.468;18.040;2023-09-18T11:36:49;2.38;;;0.77;;
50379;SDS011;37474;59.468;18.040;2023-09-18T11:39:33;1.83;;;0.65;;
50379;SDS011;37474;59.468;18.040;2023-09-18T11:42:08;2.20;;;0.60;;
50379;SDS011;37474;59.468;18.040;2023-09-18T11:44:37;1.35;;;0.77;;
50379;SDS011;37474;59.468;18.040;2023-09-18T11:47:09;0.80;;;0.50;;
50379;SDS011;37474;59.468;18.040;2023-09-18T11:49:47;2.35;;;0.70;;
50379;SDS011;37474;59.468;18.040;2023-09-18T11:52:21;1.90;;;0.45;;
50379;SDS011;37474;59.468;18.040;2023-09-18T11:54:51;2.10;;;0.57;;
50379;SDS011;37474;59.468;18.040;2023-09-18T11:57:22;1.55;;;0.50;;
50379;SDS011;37474;59.468;18.040;2023-09-18T11:59:50;2.03;;;0.90;;
50379;SDS011;37474;59.468;18.040;2023-09-18T12:02:28;2.03;;;0.73;;
50379;SDS011;37474;59.468;18.040;2023-09-18T12:05:09;2.13;;;0.50;;
50379;SDS011;37474;59.468;18.040;2023-09-18T12:07:38;1.45;;;0.60;;
50379;SDS011;37474;59.468;18.040;2023-09-18T12:10:10;1.60;;;0.60;;
50379;SDS011;37474;59.468;18.040;2023-09-18T12:12:40;2.05;;;0.70;;
50379;SDS011;37474;59.468;18.040;2023-09-18T12:15:10;1.65;;;0.40;;
50379;SDS011;37474;59.468;18.040;2023-09-18T12:17:39;1.95;;;0.70;;
50379;SDS011;37474;59.468;18.040;2023-09-18T12:20:09;1.85;;;0.55;;
50379;SDS011;37474;59.468;18.040;2023-09-18T12:22:47;2.70;;;0.60;;
50379;SDS011;37474;59.468;18.040;2023-09-18T12:25:16;2.67;;;0.60;;
50379;SDS011;37474;59.468;18.040;2023-09-18T12:27:46;1.73;;;0.40;;
50379;SDS011;37474;59.468;18.040;2023-09-18T12:30:19;3.55;;;0.80;;
50379;SDS011;37474;59.468;18.040;2023-09-18T12:32:50;1.83;;;0.50;;
50379;SDS011;37474;59.468;18.040;2023-09-18T12:35:20;2.67;;;0.50;;
50379;SDS011;37474;59.468;18.040;2023-09-18T12:37:49;1.40;;;0.40;;
50379;SDS011;37474;59.468;18.040;2023-09-18T12:40:21;1.13;;;0.50;;
50379;SDS011;37474;59.468;18.040;2023-09-18T12:42:51;1.25;;;0.55;;
50379;SDS011;37474;59.468;18.040;2023-09-18T12:45:21;1.67;;;0.50;;
50379;SDS011;37474;59.468;18.040;2023-09-18T12:47:50;2.17;;;0.60;;
50379;SDS011;37474;59.468;18.040;2023-09-18T12:50:18;2.28;;;0.68;;
50379;SDS011;37474;59.468;18.040;2023-09-18T12:52:46;3.33;;;0.50;;
50379;SDS011;37474;59.468;18.040;2023-09-18T12:55:24;3.92;;;0.50;;
50379;SDS011;37474;59.468;18.040;2023-09-18T12:57:55;2.67;;;0.50;;
50379;SDS011;37474;59.468;18.040;2023-09-18T13:00:23;2.00;;;0.67;;
50379;SDS011;37474;59.468;18.040;2023-09-18T13:02:53;1.42;;;0.47;;
50379;SDS011;37474;59.468;18.040;2023-09-18T13:05:23;1.92;;;0.65;;
50379;SDS011;37474;59.468;18.040;2023-09-18T13:07:53;2.45;;;1.17;;
50379;SDS011;37474;59.468;18.040;2023-09-18T13:10:22;3.13;;;0.60;;
50379;SDS011;37474;59.468;18.040;2023-09-18T13:12:55;0.95;;;0.40;;
50379;SDS011;37474;59.468;18.040;2023-09-18T13:17:53;1.80;;;0.50;;
50379;SDS011;37474;59.468;18.040;2023-09-18T13:20:22;1.25;;;0.50;;
50379;SDS011;37474;59.468;18.040;2023-09-18T13:22:53;2.17;;;0.50;;
50379;SDS011;37474;59.468;18.040;2023-09-18T13:25:23;1.98;;;0.70;;
50379;SDS011;37474;59.468;18.040;2023-09-18T13:27:52;2.67;;;0.60;;
50379;SDS011;37474;59.468;18.040;2023-09-18T13:30:22;2.43;;;0.53;;
50379;SDS011;37474;59.468;18.040;2023-09-18T13:32:50;2.85;;;0.50;;
50379;SDS011;37474;59.468;18.040;2023-09-18T13:35:19;1.40;;;0.40;;
50379;SDS011;37474;59.468;18.040;2023-09-18T13:37:46;1.75;;;0.57;;
50379;SDS011;37474;59.468;18.040;2023-09-18T13:40:15;1.20;;;0.60;;
50379;SDS011;37474;59.468;18.040;2023-09-18T13:42:44;2.30;;;0.60;;
50379;SDS011;37474;59.468;18.040;2023-09-18T13:45:15;2.33;;;0.65;;
50379;SDS011;37474;59.468;18.040;2023-09-18T13:47:45;1.48;;;0.47;;
50379;SDS011;37474;59.468;18.040;2023-09-18T13:50:15;2.85;;;0.50;;
50379;SDS011;37474;59.468;18.040;2023-09-18T13:52:44;1.75;;;0.50;;
50379;SDS011;37474;59.468;18.040;2023-09-18T13:55:12;1.75;;;0.88;;
50379;SDS011;37474;59.468;18.040;2023-09-18T13:57:40;1.35;;;0.52;;
50379;SDS011;37474;59.468;18.040;2023-09-18T14:00:09;1.60;;;0.40;;
50379;SDS011;37474;59.468;18.040;2023-09-18T14:02:38;1.88;;;0.43;;
50379;SDS011;37474;59.468;18.040;2023-09-18T14:05:09;1.85;;;0.50;;
50379;SDS011;37474;59.468;18.040;2023-09-18T14:07:43;1.10;;;0.50;;
50379;SDS011;37474;59.468;18.040;2023-09-18T14:10:12;1.30;;;0.50;;
50379;SDS011;37474;59.468;18.040;2023-09-18T14:12:41;3.08;;;0.70;;
50379;SDS011;37474;59.468;18.040;2023-09-18T14:15:09;2.83;;;0.50;;
50379;SDS011;37474;59.468;18.040;2023-09-18T14:17:38;2.58;;;0.68;;
50379;SDS011;37474;59.468;18.040;2023-09-18T14:20:07;1.25;;;0.52;;
50379;SDS011;37474;59.468;18.040;2023-09-18T14:22:40;1.95;;;0.47;;
50379;SDS011;37474;59.468;18.040;2023-09-18T14:25:08;3.13;;;0.60;;
50379;SDS011;37474;59.468;18.040;2023-09-18T14:27:37;2.90;;;0.60;;
50379;SDS011;37474;59.468;18.040;2023-09-18T14:30:06;3.35;;;0.70;;
50379;SDS011;37474;59.468;18.040;2023-09-18T14:32:35;2.03;;;0.50;;
50379;SDS011;37474;59.468;18.040;2023-09-18T14:35:04;4.18;;;0.70;;
50379;SDS011;37474;59.468;18.040;2023-09-18T14:37:36;2.25;;;0.73;;
50379;SDS011;37474;59.468;18.040;2023-09-18T14:40:05;2.13;;;0.55;;
50379;SDS011;37474;59.468;18.040;2023-09-18T14:42:39;1.75;;;0.70;;
50379;SDS011;37474;59.468;18.040;2023-09-18T14:45:07;2.00;;;0.60;;
50379;SDS011;37474;59.468;18.040;2023-09-18T14:47:36;3.17;;;0.50;;
50379;SDS011;37474;59.468;18.040;2023-09-18T14:50:04;2.55;;;0.50;;
50379;SDS011;37474;59.468;18.040;2023-09-18T14:52:35;2.72;;;0.60;;
50379;SDS011;37474;59.468;18.040;2023-09-18T14:55:03;5.30;;;0.65;;
50379;SDS011;37474;59.468;18.040;2023-09-18T14:57:33;3.00;;;0.70;;
50379;SDS011;37474;59.468;18.040;2023-09-18T15:00:01;1.98;;;0.60;;
50379;SDS011;37474;59.468;18.040;2023-09-18T15:02:32;3.70;;;0.73;;
50379;SDS011;37474;59.468;18.040;2023-09-18T15:05:01;2.72;;;0.68;;
50379;SDS011;37474;59.468;18.040;2023-09-18T15:07:32;2.88;;;0.57;;
50379;SDS011;37474;59.468;18.040;2023-09-18T15:10:01;2.17;;;0.50;;
50379;SDS011;37474;59.468;18.040;2023-09-18T15:12:31;4.25;;;0.63;;
50379;SDS011;37474;59.468;18.040;2023-09-18T15:15:00;2.05;;;0.65;;
50379;SDS011;37474;59.468;18.040;2023-09-18T15:17:28;4.28;;;0.68;;
50379;SDS011;37474;59.468;18.040;2023-09-18T15:19:56;4.88;;;0.65;;
50379;SDS011;37474;59.468;18.040;2023-09-18T15:22:24;2.28;;;0.73;;
50379;SDS011;37474;59.468;18.040;2023-09-18T15:24:52;2.53;;;0.80;;
50379;SDS011;37474;59.468;18.040;2023-09-18T15:27:26;2.22;;;0.73;;
50379;SDS011;37474;59.468;18.040;2023-09-18T15:29:54;1.58;;;0.65;;
50379;SDS011;37474;59.468;18.040;2023-09-18T15:32:23;2.88;;;0.88;;
50379;SDS011;37474;59.468;18.040;2023-09-18T15:34:51;2.50;;;0.60;;
50379;SDS011;37474;59.468;18.040;2023-09-18T15:37:19;3.65;;;0.93;;
50379;SDS011;37474;59.468;18.040;2023-09-18T15:39:48;2.10;;;0.70;;
50379;SDS011;37474;59.468;18.040;2023-09-18T15:42:17;1.65;;;0.65;;
50379;SDS011;37474;59.468;18.040;2023-09-18T15:44:47;2.05;;;0.82;;
50379;SDS011;37474;59.468;18.040;2023-09-18T15:47:15;2.80;;;0.90;;
50379;SDS011;37474;59.468;18.040;2023-09-18T15:49:43;3.58;;;0.85;;
50379;SDS011;37474;59.468;18.040;2023-09-18T15:52:11;2.65;;;0.82;;
50379;SDS011;37474;59.468;18.040;2023-09-18T15:54:39;2.67;;;0.73;;
50379;SDS011;37474;59.468;18.040;2023-09-18T15:57:08;7.05;;;0.90;;
50379;SDS011;37474;59.468;18.040;2023-09-18T15:59:36;3.28;;;0.82;;
50379;SDS011;37474;59.468;18.040;2023-09-18T16:02:06;4.32;;;1.00;;
50379;SDS011;37474;59.468;18.040;2023-09-18T16:04:34;1.40;;;0.68;;
50379;SDS011;37474;59.468;18.040;2023-09-18T16:07:02;2.55;;;0.80;;
50379;SDS011;37474;59.468;18.040;2023-09-18T16:09:30;3.03;;;0.63;;
50379;SDS011;37474;59.468;18.040;2023-09-18T16:11:58;2.30;;;0.75;;
50379;SDS011;37474;59.468;18.040;2023-09-18T16:14:26;1.42;;;0.80;;
50379;SDS011;37474;59.468;18.040;2023-09-18T16:16:54;3.00;;;0.80;;
50379;SDS011;37474;59.468;18.040;2023-09-18T16:19:24;3.75;;;1.00;;